sensor_id;sensor_type;location;lat;lon;timestamp;P1;durP1;ratioP1;P2;durP2;ratioP2
48925;SDS011;39838;59.938;30.642;2022-11-03T00:00:10;12.02;;;6.45;;
48925;SDS011;39838;59.938;30.642;2022-11-03T00:02:37;9.68;;;6.55;;
48925;SDS011;39838;59.938;30.642;2022-11-03T00:05:05;9.82;;;6.47;;
48925;SDS011;39838;59.938;30.642;2022-11-03T00:07:46;10.00;;;6.50;;
48925;SDS011;39838;59.938;30.642;2022-11-03T00:10:13;9.23;;;6.50;;
48925;SDS011;39838;59.938;30.642;2022-11-03T00:12:40;9.10;;;5.90;;
48925;SDS011;39838;59.938;30.642;2022-11-03T00:15:09;9.63;;;5.43;;
48925;SDS011;39838;59.938;30.642;2022-11-03T00:17:36;9.45;;;5.80;;
48925;SDS011;39838;59.938;30.642;2022-11-03T00:20:03;9.80;;;5.78;;
48925;SDS011;39838;59.938;30.642;2022-11-03T00:22:31;22.63;;;6.35;;
48925;SDS011;39838;59.938;30.642;2022-11-03T00:24:58;18.40;;;6.47;;
48925;SDS011;39838;59.938;30.642;2022-11-03T00:27:26;15.48;;;6.45;;
48925;SDS011;39838;59.938;30.642;2022-11-03T00:29:53;32.53;;;7.10;;
48925;SDS011;39838;59.938;30.642;2022-11-03T00:32:21;10.30;;;6.47;;
48925;SDS011;39838;59.938;30.642;2022-11-03T00:34:48;59.05;;;7.97;;
48925;SDS011;39838;59.938;30.642;2022-11-03T00:37:16;33.60;;;7.15;;
48925;SDS011;39838;59.938;30.642;2022-11-03T00:39:43;41.55;;;7.55;;
48925;SDS011;39838;59.938;30.642;2022-11-03T00:42:10;116.07;;;9.23;;
48925;SDS011;39838;59.938;30.642;2022-11-03T00:44:37;100.28;;;9.75;;
48925;SDS011;39838;59.938;30.642;2022-11-03T00:47:04;29.42;;;7.35;;
48925;SDS011;39838;59.938;30.642;2022-11-03T00:49:33;11.50;;;6.78;;
48925;SDS011;39838;59.938;30.642;2022-11-03T00:52:00;10.23;;;6.50;;
48925;SDS011;39838;59.938;30.642;2022-11-03T00:54:27;11.77;;;6.18;;
48925;SDS011;39838;59.938;30.642;2022-11-03T00:56:54;8.10;;;5.85;;
48925;SDS011;39838;59.938;30.642;2022-11-03T00:59:21;9.20;;;5.82;;
48925;SDS011;39838;59.938;30.642;2022-11-03T01:01:48;10.15;;;6.20;;
48925;SDS011;39838;59.938;30.642;2022-11-03T01:04:15;10.30;;;6.32;;
48925;SDS011;39838;59.938;30.642;2022-11-03T01:07:02;10.40;;;6.15;;
48925;SDS011;39838;59.938;30.642;2022-11-03T01:09:33;9.65;;;5.93;;
48925;SDS011;39838;59.938;30.642;2022-11-03T01:12:02;8.95;;;5.80;;
48925;SDS011;39838;59.938;30.642;2022-11-03T01:14:31;8.30;;;5.65;;
48925;SDS011;39838;59.938;30.642;2022-11-03T01:17:01;13.75;;;6.57;;
48925;SDS011;39838;59.938;30.642;2022-11-03T01:19:30;11.60;;;6.13;;
48925;SDS011;39838;59.938;30.642;2022-11-03T01:21:57;9.43;;;6.18;;
48925;SDS011;39838;59.938;30.642;2022-11-03T01:24:26;12.27;;;6.80;;
48925;SDS011;39838;59.938;30.642;2022-11-03T01:26:53;16.50;;;7.20;;
48925;SDS011;39838;59.938;30.642;2022-11-03T01:29:20;13.88;;;6.55;;
48925;SDS011;39838;59.938;30.642;2022-11-03T01:31:47;9.43;;;6.20;;
48925;SDS011;39838;59.938;30.642;2022-11-03T01:34:16;9.50;;;6.18;;
48925;SDS011;39838;59.938;30.642;2022-11-03T01:36:44;10.55;;;6.60;;
48925;SDS011;39838;59.938;30.642;2022-11-03T01:39:12;9.43;;;6.18;;
48925;SDS011;39838;59.938;30.642;2022-11-03T01:41:42;10.07;;;6.00;;
48925;SDS011;39838;59.938;30.642;2022-11-03T01:47:11;10.10;;;6.70;;
48925;SDS011;39838;59.938;30.642;2022-11-03T01:49:43;10.07;;;6.68;;
48925;SDS011;39838;59.938;30.642;2022-11-03T01:52:15;10.25;;;6.85;;
48925;SDS011;39838;59.938;30.642;2022-11-03T01:54:49;10.32;;;6.50;;
48925;SDS011;39838;59.938;30.642;2022-11-03T01:57:20;11.52;;;6.93;;
48925;SDS011;39838;59.938;30.642;2022-11-03T01:59:52;9.27;;;6.15;;
48925;SDS011;39838;59.938;30.642;2022-11-03T02:02:22;9.75;;;6.30;;
48925;SDS011;39838;59.938;30.642;2022-11-03T02:04:50;11.43;;;6.47;;
48925;SDS011;39838;59.938;30.642;2022-11-03T02:07:18;10.13;;;6.50;;
48925;SDS011;39838;59.938;30.642;2022-11-03T02:09:51;10.23;;;6.60;;
48925;SDS011;39838;59.938;30.642;2022-11-03T02:12:20;10.35;;;6.60;;
48925;SDS011;39838;59.938;30.642;2022-11-03T02:14:49;10.45;;;6.20;;
48925;SDS011;39838;59.938;30.642;2022-11-03T02:17:20;10.25;;;6.45;;
48925;SDS011;39838;59.938;30.642;2022-11-03T02:19:50;11.52;;;6.68;;
48925;SDS011;39838;59.938;30.642;2022-11-03T02:22:33;10.15;;;6.78;;
48925;SDS011;39838;59.938;30.642;2022-11-03T02:25:11;9.32;;;6.38;;
48925;SDS011;39838;59.938;30.642;2022-11-03T02:27:45;9.32;;;6.20;;
48925;SDS011;39838;59.938;30.642;2022-11-03T02:30:12;10.85;;;6.10;;
48925;SDS011;39838;59.938;30.642;2022-11-03T02:32:41;10.32;;;6.72;;
48925;SDS011;39838;59.938;30.642;2022-11-03T02:35:20;10.52;;;6.70;;
48925;SDS011;39838;59.938;30.642;2022-11-03T02:37:53;11.57;;;7.30;;
48925;SDS011;39838;59.938;30.642;2022-11-03T02:40:25;10.98;;;7.28;;
48925;SDS011;39838;59.938;30.642;2022-11-03T02:42:57;13.30;;;8.00;;
48925;SDS011;39838;59.938;30.642;2022-11-03T02:45:26;13.68;;;7.93;;
48925;SDS011;39838;59.938;30.642;2022-11-03T02:47:54;13.00;;;7.82;;
48925;SDS011;39838;59.938;30.642;2022-11-03T02:50:26;12.10;;;7.55;;
48925;SDS011;39838;59.938;30.642;2022-11-03T02:52:54;11.90;;;6.95;;
48925;SDS011;39838;59.938;30.642;2022-11-03T02:55:24;12.52;;;7.43;;
48925;SDS011;39838;59.938;30.642;2022-11-03T02:58:03;11.60;;;7.65;;
48925;SDS011;39838;59.938;30.642;2022-11-03T03:00:38;12.48;;;7.20;;
48925;SDS011;39838;59.938;30.642;2022-11-03T03:03:12;12.38;;;7.53;;
48925;SDS011;39838;59.938;30.642;2022-11-03T03:05:44;11.90;;;7.40;;
48925;SDS011;39838;59.938;30.642;2022-11-03T03:08:13;11.60;;;7.43;;
48925;SDS011;39838;59.938;30.642;2022-11-03T03:10:41;12.32;;;7.47;;
48925;SDS011;39838;59.938;30.642;2022-11-03T03:13:12;14.00;;;7.68;;
48925;SDS011;39838;59.938;30.642;2022-11-03T03:15:44;16.40;;;8.55;;
48925;SDS011;39838;59.938;30.642;2022-11-03T03:18:19;12.82;;;7.60;;
48925;SDS011;39838;59.938;30.642;2022-11-03T03:20:50;15.00;;;8.80;;
48925;SDS011;39838;59.938;30.642;2022-11-03T03:23:23;16.23;;;8.10;;
48925;SDS011;39838;59.938;30.642;2022-11-03T03:25:53;24.75;;;9.38;;
48925;SDS011;39838;59.938;30.642;2022-11-03T03:28:28;16.90;;;9.68;;
48925;SDS011;39838;59.938;30.642;2022-11-03T03:30:59;18.92;;;9.38;;
48925;SDS011;39838;59.938;30.642;2022-11-03T03:33:29;97.63;;;11.45;;
48925;SDS011;39838;59.938;30.642;2022-11-03T03:35:59;28.73;;;9.65;;
48925;SDS011;39838;59.938;30.642;2022-11-03T03:38:29;106.97;;;12.60;;
48925;SDS011;39838;59.938;30.642;2022-11-03T03:41:01;91.93;;;11.50;;
48925;SDS011;39838;59.938;30.642;2022-11-03T03:43:30;62.40;;;10.75;;
48925;SDS011;39838;59.938;30.642;2022-11-03T03:46:00;73.95;;;11.40;;
48925;SDS011;39838;59.938;30.642;2022-11-03T03:48:32;31.88;;;10.18;;
48925;SDS011;39838;59.938;30.642;2022-11-03T03:50:59;40.20;;;10.35;;
48925;SDS011;39838;59.938;30.642;2022-11-03T03:53:28;20.65;;;9.52;;
48925;SDS011;39838;59.938;30.642;2022-11-03T03:55:56;50.10;;;10.40;;
48925;SDS011;39838;59.938;30.642;2022-11-03T03:58:24;28.30;;;10.10;;
48925;SDS011;39838;59.938;30.642;2022-11-03T04:00:52;17.42;;;9.70;;
48925;SDS011;39838;59.938;30.642;2022-11-03T04:03:21;24.25;;;9.77;;
48925;SDS011;39838;59.938;30.642;2022-11-03T04:05:49;38.20;;;10.25;;
48925;SDS011;39838;59.938;30.642;2022-11-03T04:08:17;44.28;;;11.40;;
48925;SDS011;39838;59.938;30.642;2022-11-03T04:10:44;27.88;;;10.60;;
48925;SDS011;39838;59.938;30.642;2022-11-03T04:13:31;128.60;;;12.70;;
48925;SDS011;39838;59.938;30.642;2022-11-03T04:16:32;356.00;;;19.73;;
48925;SDS011;39838;59.938;30.642;2022-11-03T04:19:16;68.88;;;11.10;;
48925;SDS011;39838;59.938;30.642;2022-11-03T04:22:09;45.13;;;11.00;;
48925;SDS011;39838;59.938;30.642;2022-11-03T04:24:43;83.72;;;10.77;;
48925;SDS011;39838;59.938;30.642;2022-11-03T04:27:22;19.25;;;9.70;;
48925;SDS011;39838;59.938;30.642;2022-11-03T04:29:54;15.75;;;8.68;;
48925;SDS011;39838;59.938;30.642;2022-11-03T04:32:25;20.00;;;8.77;;
48925;SDS011;39838;59.938;30.642;2022-11-03T04:34:52;25.20;;;9.52;;
48925;SDS011;39838;59.938;30.642;2022-11-03T04:37:20;31.70;;;9.45;;
48925;SDS011;39838;59.938;30.642;2022-11-03T04:39:47;37.60;;;10.00;;
48925;SDS011;39838;59.938;30.642;2022-11-03T04:42:14;74.25;;;10.13;;
48925;SDS011;39838;59.938;30.642;2022-11-03T04:44:44;17.15;;;7.85;;
48925;SDS011;39838;59.938;30.642;2022-11-03T04:47:12;17.38;;;8.32;;
48925;SDS011;39838;59.938;30.642;2022-11-03T04:49:41;14.82;;;8.25;;
48925;SDS011;39838;59.938;30.642;2022-11-03T04:52:11;12.70;;;7.50;;
48925;SDS011;39838;59.938;30.642;2022-11-03T04:54:42;15.85;;;7.43;;
48925;SDS011;39838;59.938;30.642;2022-11-03T04:57:11;14.07;;;7.70;;
48925;SDS011;39838;59.938;30.642;2022-11-03T04:59:39;18.83;;;8.15;;
48925;SDS011;39838;59.938;30.642;2022-11-03T05:02:08;16.83;;;7.72;;
48925;SDS011;39838;59.938;30.642;2022-11-03T05:04:37;15.55;;;7.90;;
48925;SDS011;39838;59.938;30.642;2022-11-03T05:07:07;68.93;;;9.38;;
48925;SDS011;39838;59.938;30.642;2022-11-03T05:09:47;26.38;;;7.68;;
48925;SDS011;39838;59.938;30.642;2022-11-03T05:12:15;39.53;;;8.65;;
48925;SDS011;39838;59.938;30.642;2022-11-03T05:14:43;45.85;;;8.68;;
48925;SDS011;39838;59.938;30.642;2022-11-03T05:17:14;45.38;;;9.23;;
48925;SDS011;39838;59.938;30.642;2022-11-03T05:19:48;38.17;;;8.93;;
48925;SDS011;39838;59.938;30.642;2022-11-03T05:22:19;41.47;;;8.80;;
48925;SDS011;39838;59.938;30.642;2022-11-03T05:24:48;28.88;;;8.52;;
48925;SDS011;39838;59.938;30.642;2022-11-03T05:27:21;23.38;;;8.25;;
48925;SDS011;39838;59.938;30.642;2022-11-03T05:29:50;25.77;;;8.70;;
48925;SDS011;39838;59.938;30.642;2022-11-03T05:32:20;21.98;;;8.02;;
48925;SDS011;39838;59.938;30.642;2022-11-03T05:34:50;19.67;;;8.52;;
48925;SDS011;39838;59.938;30.642;2022-11-03T05:37:24;16.33;;;7.70;;
48925;SDS011;39838;59.938;30.642;2022-11-03T05:39:54;18.20;;;8.05;;
48925;SDS011;39838;59.938;30.642;2022-11-03T05:42:33;17.17;;;8.02;;
48925;SDS011;39838;59.938;30.642;2022-11-03T05:45:03;16.35;;;8.30;;
48925;SDS011;39838;59.938;30.642;2022-11-03T05:47:41;16.05;;;8.70;;
48925;SDS011;39838;59.938;30.642;2022-11-03T05:50:18;20.70;;;7.88;;
48925;SDS011;39838;59.938;30.642;2022-11-03T05:52:48;15.77;;;7.88;;
48925;SDS011;39838;59.938;30.642;2022-11-03T05:55:23;14.60;;;8.15;;
48925;SDS011;39838;59.938;30.642;2022-11-03T05:57:53;13.85;;;7.55;;
48925;SDS011;39838;59.938;30.642;2022-11-03T06:00:24;21.30;;;8.32;;
48925;SDS011;39838;59.938;30.642;2022-11-03T06:02:54;36.35;;;9.18;;
48925;SDS011;39838;59.938;30.642;2022-11-03T06:05:22;18.95;;;8.27;;
48925;SDS011;39838;59.938;30.642;2022-11-03T06:07:53;18.45;;;8.90;;
48925;SDS011;39838;59.938;30.642;2022-11-03T06:10:24;17.02;;;7.85;;
48925;SDS011;39838;59.938;30.642;2022-11-03T06:12:53;22.40;;;8.18;;
48925;SDS011;39838;59.938;30.642;2022-11-03T06:15:26;19.73;;;7.97;;
48925;SDS011;39838;59.938;30.642;2022-11-03T06:17:55;29.05;;;8.57;;
48925;SDS011;39838;59.938;30.642;2022-11-03T06:20:23;43.42;;;8.73;;
48925;SDS011;39838;59.938;30.642;2022-11-03T06:22:51;48.75;;;9.43;;
48925;SDS011;39838;59.938;30.642;2022-11-03T06:25:22;14.38;;;7.40;;
48925;SDS011;39838;59.938;30.642;2022-11-03T06:27:53;29.40;;;8.38;;
48925;SDS011;39838;59.938;30.642;2022-11-03T06:30:25;16.02;;;7.70;;
48925;SDS011;39838;59.938;30.642;2022-11-03T06:32:57;16.65;;;7.43;;
48925;SDS011;39838;59.938;30.642;2022-11-03T06:35:25;18.80;;;8.00;;
48925;SDS011;39838;59.938;30.642;2022-11-03T06:37:56;15.63;;;8.13;;
48925;SDS011;39838;59.938;30.642;2022-11-03T06:40:33;20.98;;;7.50;;
48925;SDS011;39838;59.938;30.642;2022-11-03T06:43:19;18.77;;;7.50;;
48925;SDS011;39838;59.938;30.642;2022-11-03T06:45:50;14.18;;;6.97;;
48925;SDS011;39838;59.938;30.642;2022-11-03T06:48:22;13.80;;;6.93;;
48925;SDS011;39838;59.938;30.642;2022-11-03T06:50:52;10.57;;;6.50;;
48925;SDS011;39838;59.938;30.642;2022-11-03T06:53:22;12.80;;;6.50;;
48925;SDS011;39838;59.938;30.642;2022-11-03T06:55:52;13.32;;;7.63;;
48925;SDS011;39838;59.938;30.642;2022-11-03T06:58:23;16.02;;;7.30;;
48925;SDS011;39838;59.938;30.642;2022-11-03T07:00:54;20.38;;;8.43;;
48925;SDS011;39838;59.938;30.642;2022-11-03T07:03:24;44.28;;;9.13;;
48925;SDS011;39838;59.938;30.642;2022-11-03T07:05:58;18.13;;;8.65;;
48925;SDS011;39838;59.938;30.642;2022-11-03T07:08:29;16.60;;;8.27;;
48925;SDS011;39838;59.938;30.642;2022-11-03T07:11:02;16.20;;;8.75;;
48925;SDS011;39838;59.938;30.642;2022-11-03T07:13:32;13.15;;;7.45;;
48925;SDS011;39838;59.938;30.642;2022-11-03T07:16:00;12.50;;;7.47;;
48925;SDS011;39838;59.938;30.642;2022-11-03T07:18:29;12.93;;;7.13;;
48925;SDS011;39838;59.938;30.642;2022-11-03T07:21:01;13.10;;;7.18;;
48925;SDS011;39838;59.938;30.642;2022-11-03T07:23:32;12.70;;;7.18;;
48925;SDS011;39838;59.938;30.642;2022-11-03T07:26:00;11.38;;;7.00;;
48925;SDS011;39838;59.938;30.642;2022-11-03T07:28:32;11.15;;;6.43;;
48925;SDS011;39838;59.938;30.642;2022-11-03T07:31:09;13.32;;;6.00;;
48925;SDS011;39838;59.938;30.642;2022-11-03T07:33:39;11.00;;;6.68;;
48925;SDS011;39838;59.938;30.642;2022-11-03T07:36:07;11.65;;;6.53;;
48925;SDS011;39838;59.938;30.642;2022-11-03T07:38:42;12.17;;;6.70;;
48925;SDS011;39838;59.938;30.642;2022-11-03T07:41:11;12.38;;;6.65;;
48925;SDS011;39838;59.938;30.642;2022-11-03T07:43:44;11.02;;;6.47;;
48925;SDS011;39838;59.938;30.642;2022-11-03T07:46:17;10.05;;;6.13;;
48925;SDS011;39838;59.938;30.642;2022-11-03T07:48:47;11.57;;;6.80;;
48925;SDS011;39838;59.938;30.642;2022-11-03T07:51:17;14.82;;;6.15;;
48925;SDS011;39838;59.938;30.642;2022-11-03T07:53:49;11.30;;;5.97;;
48925;SDS011;39838;59.938;30.642;2022-11-03T07:56:18;10.00;;;5.90;;
48925;SDS011;39838;59.938;30.642;2022-11-03T07:58:47;9.88;;;6.15;;
48925;SDS011;39838;59.938;30.642;2022-11-03T08:01:24;10.15;;;6.15;;
48925;SDS011;39838;59.938;30.642;2022-11-03T08:03:54;8.95;;;6.00;;
48925;SDS011;39838;59.938;30.642;2022-11-03T08:06:24;8.77;;;5.22;;
48925;SDS011;39838;59.938;30.642;2022-11-03T08:08:52;6.82;;;4.70;;
48925;SDS011;39838;59.938;30.642;2022-11-03T08:11:19;7.53;;;4.90;;
48925;SDS011;39838;59.938;30.642;2022-11-03T08:13:48;7.10;;;5.03;;
48925;SDS011;39838;59.938;30.642;2022-11-03T08:16:15;7.45;;;5.10;;
48925;SDS011;39838;59.938;30.642;2022-11-03T08:18:43;8.05;;;5.28;;
48925;SDS011;39838;59.938;30.642;2022-11-03T08:21:10;8.10;;;5.13;;
48925;SDS011;39838;59.938;30.642;2022-11-03T08:23:38;8.32;;;5.90;;
48925;SDS011;39838;59.938;30.642;2022-11-03T08:26:07;10.90;;;6.97;;
48925;SDS011;39838;59.938;30.642;2022-11-03T08:28:34;12.77;;;6.57;;
48925;SDS011;39838;59.938;30.642;2022-11-03T08:31:01;12.50;;;7.97;;
48925;SDS011;39838;59.938;30.642;2022-11-03T08:33:30;11.35;;;7.53;;
48925;SDS011;39838;59.938;30.642;2022-11-03T08:35:59;12.15;;;7.55;;
48925;SDS011;39838;59.938;30.642;2022-11-03T08:38:27;12.45;;;7.65;;
48925;SDS011;39838;59.938;30.642;2022-11-03T08:40:55;11.85;;;7.55;;
48925;SDS011;39838;59.938;30.642;2022-11-03T08:43:24;13.82;;;8.07;;
48925;SDS011;39838;59.938;30.642;2022-11-03T08:45:51;11.65;;;7.97;;
48925;SDS011;39838;59.938;30.642;2022-11-03T08:48:19;15.10;;;7.82;;
48925;SDS011;39838;59.938;30.642;2022-11-03T08:50:47;11.52;;;7.18;;
48925;SDS011;39838;59.938;30.642;2022-11-03T08:53:18;17.52;;;7.82;;
48925;SDS011;39838;59.938;30.642;2022-11-03T08:55:46;13.63;;;6.93;;
48925;SDS011;39838;59.938;30.642;2022-11-03T08:58:13;15.25;;;6.70;;
48925;SDS011;39838;59.938;30.642;2022-11-03T09:00:42;15.90;;;7.47;;
48925;SDS011;39838;59.938;30.642;2022-11-03T09:03:10;10.50;;;6.18;;
48925;SDS011;39838;59.938;30.642;2022-11-03T09:05:43;14.75;;;6.05;;
48925;SDS011;39838;59.938;30.642;2022-11-03T09:08:13;24.48;;;6.40;;
48925;SDS011;39838;59.938;30.642;2022-11-03T09:10:40;9.35;;;5.57;;
48925;SDS011;39838;59.938;30.642;2022-11-03T09:13:08;14.90;;;6.13;;
48925;SDS011;39838;59.938;30.642;2022-11-03T09:15:36;8.68;;;5.72;;
48925;SDS011;39838;59.938;30.642;2022-11-03T09:18:10;12.10;;;5.68;;
48925;SDS011;39838;59.938;30.642;2022-11-03T09:20:37;11.35;;;6.10;;
48925;SDS011;39838;59.938;30.642;2022-11-03T09:23:06;13.57;;;6.15;;
48925;SDS011;39838;59.938;30.642;2022-11-03T09:25:36;10.95;;;5.97;;
48925;SDS011;39838;59.938;30.642;2022-11-03T09:28:04;14.82;;;6.82;;
48925;SDS011;39838;59.938;30.642;2022-11-03T09:30:32;10.77;;;6.38;;
48925;SDS011;39838;59.938;30.642;2022-11-03T09:33:03;11.70;;;6.15;;
48925;SDS011;39838;59.938;30.642;2022-11-03T09:35:42;10.30;;;6.38;;
48925;SDS011;39838;59.938;30.642;2022-11-03T09:38:16;8.98;;;5.65;;
48925;SDS011;39838;59.938;30.642;2022-11-03T09:40:44;15.05;;;5.93;;
48925;SDS011;39838;59.938;30.642;2022-11-03T09:43:13;18.52;;;6.50;;
48925;SDS011;39838;59.938;30.642;2022-11-03T09:45:40;13.88;;;5.78;;
48925;SDS011;39838;59.938;30.642;2022-11-03T09:48:11;9.35;;;5.93;;
48925;SDS011;39838;59.938;30.642;2022-11-03T09:50:41;12.35;;;6.20;;
48925;SDS011;39838;59.938;30.642;2022-11-03T09:53:10;20.13;;;5.82;;
48925;SDS011;39838;59.938;30.642;2022-11-03T09:55:42;17.73;;;6.50;;
48925;SDS011;39838;59.938;30.642;2022-11-03T09:58:12;20.75;;;6.63;;
48925;SDS011;39838;59.938;30.642;2022-11-03T10:00:42;22.38;;;6.05;;
48925;SDS011;39838;59.938;30.642;2022-11-03T10:03:11;28.92;;;6.90;;
48925;SDS011;39838;59.938;30.642;2022-11-03T10:05:43;42.78;;;7.28;;
48925;SDS011;39838;59.938;30.642;2022-11-03T10:08:16;19.95;;;5.78;;
48925;SDS011;39838;59.938;30.642;2022-11-03T10:10:48;13.00;;;6.15;;
48925;SDS011;39838;59.938;30.642;2022-11-03T10:13:18;14.13;;;6.32;;
48925;SDS011;39838;59.938;30.642;2022-11-03T10:15:49;13.00;;;6.57;;
48925;SDS011;39838;59.938;30.642;2022-11-03T10:18:17;11.13;;;5.97;;
48925;SDS011;39838;59.938;30.642;2022-11-03T10:20:45;9.23;;;5.60;;
48925;SDS011;39838;59.938;30.642;2022-11-03T10:23:13;10.00;;;5.75;;
48925;SDS011;39838;59.938;30.642;2022-11-03T10:25:40;11.85;;;6.07;;
48925;SDS011;39838;59.938;30.642;2022-11-03T10:28:13;12.60;;;5.97;;
48925;SDS011;39838;59.938;30.642;2022-11-03T10:30:48;11.15;;;6.78;;
48925;SDS011;39838;59.938;30.642;2022-11-03T10:33:23;12.07;;;6.40;;
48925;SDS011;39838;59.938;30.642;2022-11-03T10:35:54;10.73;;;6.13;;
48925;SDS011;39838;59.938;30.642;2022-11-03T10:38:26;10.52;;;6.43;;
48925;SDS011;39838;59.938;30.642;2022-11-03T10:40:55;11.45;;;6.28;;
48925;SDS011;39838;59.938;30.642;2022-11-03T10:43:22;11.45;;;7.10;;
48925;SDS011;39838;59.938;30.642;2022-11-03T10:45:50;12.75;;;6.72;;
48925;SDS011;39838;59.938;30.642;2022-11-03T10:48:35;10.00;;;6.15;;
48925;SDS011;39838;59.938;30.642;2022-11-03T10:51:04;13.20;;;7.10;;
48925;SDS011;39838;59.938;30.642;2022-11-03T10:53:31;11.30;;;6.95;;
48925;SDS011;39838;59.938;30.642;2022-11-03T10:55:58;11.23;;;6.85;;
48925;SDS011;39838;59.938;30.642;2022-11-03T10:58:25;11.77;;;7.13;;
48925;SDS011;39838;59.938;30.642;2022-11-03T11:00:53;15.70;;;7.30;;
48925;SDS011;39838;59.938;30.642;2022-11-03T11:03:20;14.45;;;7.72;;
48925;SDS011;39838;59.938;30.642;2022-11-03T11:05:47;12.60;;;7.85;;
48925;SDS011;39838;59.938;30.642;2022-11-03T11:08:21;15.50;;;7.97;;
48925;SDS011;39838;59.938;30.642;2022-11-03T11:10:49;12.75;;;7.45;;
48925;SDS011;39838;59.938;30.642;2022-11-03T11:13:23;13.98;;;7.55;;
48925;SDS011;39838;59.938;30.642;2022-11-03T11:15:53;13.85;;;7.80;;
48925;SDS011;39838;59.938;30.642;2022-11-03T11:24:56;15.10;;;7.38;;
48925;SDS011;39838;59.938;30.642;2022-11-03T11:33:21;20.55;;;7.75;;
48925;SDS011;39838;59.938;30.642;2022-11-03T11:38:53;14.80;;;7.70;;
48925;SDS011;39838;59.938;30.642;2022-11-03T11:44:49;12.90;;;7.90;;
48925;SDS011;39838;59.938;30.642;2022-11-03T11:47:25;13.73;;;7.47;;
48925;SDS011;39838;59.938;30.642;2022-11-03T11:50:18;12.35;;;7.35;;
48925;SDS011;39838;59.938;30.642;2022-11-03T11:52:55;12.98;;;7.07;;
48925;SDS011;39838;59.938;30.642;2022-11-03T11:55:39;10.68;;;6.20;;
48925;SDS011;39838;59.938;30.642;2022-11-03T11:58:13;10.52;;;6.30;;
48925;SDS011;39838;59.938;30.642;2022-11-03T12:00:52;10.32;;;6.18;;
48925;SDS011;39838;59.938;30.642;2022-11-03T12:03:23;9.63;;;5.78;;
48925;SDS011;39838;59.938;30.642;2022-11-03T12:05:53;10.38;;;5.93;;
48925;SDS011;39838;59.938;30.642;2022-11-03T12:08:24;8.07;;;5.50;;
48925;SDS011;39838;59.938;30.642;2022-11-03T12:10:54;10.80;;;5.97;;
48925;SDS011;39838;59.938;30.642;2022-11-03T12:13:39;10.80;;;6.05;;
48925;SDS011;39838;59.938;30.642;2022-11-03T12:16:21;7.72;;;5.32;;
48925;SDS011;39838;59.938;30.642;2022-11-03T12:18:55;6.78;;;4.63;;
48925;SDS011;39838;59.938;30.642;2022-11-03T12:24:25;8.55;;;5.40;;
48925;SDS011;39838;59.938;30.642;2022-11-03T12:27:01;8.80;;;5.43;;
48925;SDS011;39838;59.938;30.642;2022-11-03T12:29:29;9.77;;;5.57;;
48925;SDS011;39838;59.938;30.642;2022-11-03T12:31:58;10.77;;;5.53;;
48925;SDS011;39838;59.938;30.642;2022-11-03T12:34:25;10.02;;;6.00;;
48925;SDS011;39838;59.938;30.642;2022-11-03T12:36:53;10.52;;;6.20;;
48925;SDS011;39838;59.938;30.642;2022-11-03T12:39:20;9.40;;;5.75;;
48925;SDS011;39838;59.938;30.642;2022-11-03T12:41:47;11.02;;;5.88;;
48925;SDS011;39838;59.938;30.642;2022-11-03T12:44:14;10.70;;;5.75;;
48925;SDS011;39838;59.938;30.642;2022-11-03T12:46:41;9.85;;;5.97;;
48925;SDS011;39838;59.938;30.642;2022-11-03T12:49:10;8.88;;;5.85;;
48925;SDS011;39838;59.938;30.642;2022-11-03T12:51:37;10.77;;;6.10;;
48925;SDS011;39838;59.938;30.642;2022-11-03T12:54:04;12.18;;;6.03;;
48925;SDS011;39838;59.938;30.642;2022-11-03T12:56:31;10.57;;;5.65;;
48925;SDS011;39838;59.938;30.642;2022-11-03T12:58:58;8.10;;;5.45;;
48925;SDS011;39838;59.938;30.642;2022-11-03T13:01:25;7.30;;;5.07;;
48925;SDS011;39838;59.938;30.642;2022-11-03T13:03:53;11.38;;;5.57;;
48925;SDS011;39838;59.938;30.642;2022-11-03T13:06:21;11.10;;;5.18;;
48925;SDS011;39838;59.938;30.642;2022-11-03T13:08:48;8.07;;;4.90;;
48925;SDS011;39838;59.938;30.642;2022-11-03T13:11:15;9.57;;;5.75;;
48925;SDS011;39838;59.938;30.642;2022-11-03T13:14:00;8.57;;;5.40;;
48925;SDS011;39838;59.938;30.642;2022-11-03T13:16:28;8.85;;;5.45;;
48925;SDS011;39838;59.938;30.642;2022-11-03T13:18:55;8.32;;;5.22;;
48925;SDS011;39838;59.938;30.642;2022-11-03T13:21:23;8.45;;;5.32;;
48925;SDS011;39838;59.938;30.642;2022-11-03T13:23:50;7.88;;;5.55;;
48925;SDS011;39838;59.938;30.642;2022-11-03T13:26:18;8.85;;;5.57;;
48925;SDS011;39838;59.938;30.642;2022-11-03T13:28:45;8.38;;;4.40;;
48925;SDS011;39838;59.938;30.642;2022-11-03T13:31:13;7.05;;;4.60;;
48925;SDS011;39838;59.938;30.642;2022-11-03T13:33:40;8.52;;;5.10;;
48925;SDS011;39838;59.938;30.642;2022-11-03T13:36:07;7.93;;;5.10;;
48925;SDS011;39838;59.938;30.642;2022-11-03T13:38:38;9.10;;;5.60;;
48925;SDS011;39838;59.938;30.642;2022-11-03T13:41:05;9.40;;;5.80;;
48925;SDS011;39838;59.938;30.642;2022-11-03T13:43:33;24.15;;;5.65;;
48925;SDS011;39838;59.938;30.642;2022-11-03T13:46:00;8.10;;;5.22;;
48925;SDS011;39838;59.938;30.642;2022-11-03T13:48:29;13.73;;;5.47;;
48925;SDS011;39838;59.938;30.642;2022-11-03T13:50:56;13.27;;;4.82;;
48925;SDS011;39838;59.938;30.642;2022-11-03T13:53:24;19.55;;;5.15;;
48925;SDS011;39838;59.938;30.642;2022-11-03T13:55:52;9.77;;;4.57;;
48925;SDS011;39838;59.938;30.642;2022-11-03T13:58:19;25.33;;;4.93;;
48925;SDS011;39838;59.938;30.642;2022-11-03T14:00:47;16.05;;;4.60;;
48925;SDS011;39838;59.938;30.642;2022-11-03T14:03:14;8.10;;;3.97;;
48925;SDS011;39838;59.938;30.642;2022-11-03T14:05:43;7.50;;;4.00;;
48925;SDS011;39838;59.938;30.642;2022-11-03T14:08:12;11.60;;;3.63;;
48925;SDS011;39838;59.938;30.642;2022-11-03T14:10:39;8.48;;;4.07;;
48925;SDS011;39838;59.938;30.642;2022-11-03T14:13:07;8.55;;;3.78;;
48925;SDS011;39838;59.938;30.642;2022-11-03T14:15:33;8.30;;;3.53;;
48925;SDS011;39838;59.938;30.642;2022-11-03T14:18:01;5.40;;;3.30;;
48925;SDS011;39838;59.938;30.642;2022-11-03T14:20:28;5.10;;;3.28;;
48925;SDS011;39838;59.938;30.642;2022-11-03T14:22:56;6.80;;;3.30;;
48925;SDS011;39838;59.938;30.642;2022-11-03T14:25:23;5.05;;;3.10;;
48925;SDS011;39838;59.938;30.642;2022-11-03T14:27:50;5.35;;;2.90;;
48925;SDS011;39838;59.938;30.642;2022-11-03T14:30:19;6.07;;;3.17;;
48925;SDS011;39838;59.938;30.642;2022-11-03T14:32:47;6.85;;;3.60;;
48925;SDS011;39838;59.938;30.642;2022-11-03T14:35:14;5.03;;;3.10;;
48925;SDS011;39838;59.938;30.642;2022-11-03T14:37:41;5.60;;;3.70;;
48925;SDS011;39838;59.938;30.642;2022-11-03T14:40:09;7.90;;;3.70;;
48925;SDS011;39838;59.938;30.642;2022-11-03T14:42:56;11.00;;;3.72;;
48925;SDS011;39838;59.938;30.642;2022-11-03T14:45:24;12.02;;;3.95;;
48925;SDS011;39838;59.938;30.642;2022-11-03T14:47:51;76.55;;;5.70;;
48925;SDS011;39838;59.938;30.642;2022-11-03T14:50:18;24.58;;;3.50;;
48925;SDS011;39838;59.938;30.642;2022-11-03T14:52:45;24.77;;;4.00;;
48925;SDS011;39838;59.938;30.642;2022-11-03T14:55:12;15.90;;;3.92;;
48925;SDS011;39838;59.938;30.642;2022-11-03T14:57:39;32.63;;;5.47;;
48925;SDS011;39838;59.938;30.642;2022-11-03T15:00:07;7.03;;;3.33;;
48925;SDS011;39838;59.938;30.642;2022-11-03T15:02:37;7.95;;;3.50;;
48925;SDS011;39838;59.938;30.642;2022-11-03T15:05:05;6.35;;;3.72;;